createdAt,value
2016-08-10T00:04:51.848Z,1014.05
2016-08-10T00:09:49.272Z,1014.08
2016-08-10T00:14:47.147Z,1014.02
2016-08-10T00:24:42.151Z,1014.00
2016-08-10T00:29:40.037Z,1013.93
2016-08-10T00:34:37.678Z,1013.89
2016-08-10T00:39:35.257Z,1013.79
2016-08-10T00:44:33.206Z,1013.83
2016-08-10T00:49:30.796Z,1013.86
2016-08-10T00:54:28.660Z,1013.85
2016-08-10T00:59:26.241Z,1013.85
2016-08-10T01:04:24.132Z,1013.88
2016-08-10T01:09:21.788Z,1013.81
2016-08-10T01:14:19.507Z,1013.82
2016-08-10T01:19:17.232Z,1013.74
2016-08-10T01:24:14.905Z,1013.75
2016-08-10T01:29:12.504Z,1013.71
2016-08-10T01:34:10.190Z,1013.73
2016-08-10T01:39:07.832Z,1013.81
2016-08-10T01:44:05.551Z,1013.69
2016-08-10T01:49:03.129Z,1013.73
2016-08-10T01:54:00.773Z,1013.72
2016-08-10T01:58:58.555Z,1013.73
2016-08-10T02:03:56.263Z,1013.65
2016-08-10T02:08:53.983Z,1013.70
2016-08-10T02:13:51.733Z,1013.54
2016-08-10T02:18:49.383Z,1013.55
2016-08-10T02:23:46.978Z,1013.71
2016-08-10T02:28:44.782Z,1013.70
2016-08-10T02:33:42.753Z,1013.64
2016-08-10T02:38:40.585Z,1013.69
2016-08-10T02:43:38.321Z,1013.57
2016-08-10T02:48:35.896Z,1013.61
2016-08-10T02:53:34.323Z,1013.46
2016-08-10T02:58:31.695Z,1013.53
2016-08-10T03:03:29.398Z,1013.61
2016-08-10T03:08:27.085Z,1013.75
2016-08-10T03:13:24.759Z,1013.75
2016-08-10T03:18:22.542Z,1013.81
2016-08-10T03:28:17.614Z,1013.81
2016-08-10T03:33:15.374Z,1013.72
2016-08-10T03:38:12.943Z,1013.61
2016-08-10T03:43:10.701Z,1013.48
2016-08-10T03:48:08.395Z,1013.50
2016-08-10T03:53:05.918Z,1013.53
2016-08-10T03:58:03.666Z,1013.52
2016-08-10T04:03:01.425Z,1013.62
2016-08-10T04:07:59.002Z,1013.64
2016-08-10T04:12:56.779Z,1013.54
2016-08-10T04:17:54.589Z,1013.56
2016-08-10T04:22:52.274Z,1013.61
2016-08-10T04:27:50.013Z,1013.59
2016-08-10T04:32:47.758Z,1013.51
2016-08-10T04:37:45.432Z,1013.54
2016-08-10T04:42:43.074Z,1013.55
2016-08-10T04:47:40.676Z,1013.65
2016-08-10T04:52:38.330Z,1013.51
2016-08-10T04:57:35.986Z,1013.55
2016-08-10T05:02:33.714Z,1013.57
2016-08-10T05:07:31.526Z,1013.65
2016-08-10T05:12:29.427Z,1013.59
2016-08-10T05:17:27.003Z,1013.73
2016-08-10T05:22:24.720Z,1013.60
2016-08-10T05:27:22.281Z,1013.65
2016-08-10T05:32:20.072Z,1013.69
2016-08-10T05:37:18.061Z,1013.71
2016-08-10T05:42:15.687Z,1013.79
2016-08-10T05:47:13.573Z,1013.74
2016-08-10T05:52:11.342Z,1013.74
2016-08-10T05:57:09.542Z,1013.78
2016-08-10T06:02:07.446Z,1013.88
2016-08-10T06:07:05.054Z,1013.83
2016-08-10T06:12:02.749Z,1013.90
2016-08-10T06:17:00.584Z,1013.92
2016-08-10T06:21:58.315Z,1013.95
2016-08-10T06:26:56.177Z,1013.99
2016-08-10T06:31:53.941Z,1014.10
2016-08-10T06:36:51.690Z,1014.17
2016-08-10T06:41:49.647Z,1014.16
2016-08-10T06:46:47.388Z,1014.18
2016-08-10T06:51:45.183Z,1014.20
2016-08-10T06:56:42.951Z,1014.32
2016-08-10T07:01:40.809Z,1014.29
2016-08-10T07:06:38.633Z,1014.35
2016-08-10T07:11:36.312Z,1014.42
2016-08-10T07:16:34.193Z,1014.34
2016-08-10T07:21:31.849Z,1014.38
2016-08-10T07:26:29.652Z,1014.44
2016-08-10T07:31:28.479Z,1014.45
2016-08-10T07:36:26.034Z,1014.48
2016-08-10T07:41:23.625Z,1014.48
2016-08-10T07:46:21.286Z,1014.38
2016-08-10T07:51:18.917Z,1014.46
2016-08-10T07:56:16.725Z,1014.41
2016-08-10T08:01:14.626Z,1014.38
2016-08-10T08:06:12.256Z,1014.44
2016-08-10T08:11:10.184Z,1014.42
2016-08-10T08:16:08.347Z,1014.41
2016-08-10T08:21:06.669Z,1014.45
2016-08-10T08:26:05.207Z,1014.47
2016-08-10T08:31:02.657Z,1014.52
2016-08-10T08:36:00.548Z,1014.48
2016-08-10T08:40:58.734Z,1014.60
2016-08-10T08:45:56.417Z,1014.57
2016-08-10T08:50:54.199Z,1014.65
2016-08-10T08:55:52.058Z,1014.52
2016-08-10T09:00:49.600Z,1014.59
2016-08-10T09:05:47.382Z,1014.58
2016-08-10T09:10:44.810Z,1014.51
2016-08-10T09:15:42.473Z,1014.56
2016-08-10T09:20:40.455Z,1014.44
2016-08-10T09:25:37.887Z,1014.46
2016-08-10T09:30:35.372Z,1014.53
2016-08-10T09:35:33.715Z,1014.54
2016-08-10T09:40:31.129Z,1014.51
2016-08-10T09:45:28.807Z,1014.45
2016-08-10T09:50:26.523Z,1014.46
2016-08-10T09:55:24.200Z,1014.36
2016-08-10T10:00:21.702Z,1014.40
2016-08-10T10:05:19.386Z,1014.37
2016-08-10T10:10:16.992Z,1014.39
2016-08-10T10:15:14.547Z,1014.41
2016-08-10T10:20:12.169Z,1014.40
2016-08-10T10:25:09.879Z,1014.41
2016-08-10T10:30:07.560Z,1014.38
2016-08-10T10:35:05.241Z,1014.43
2016-08-10T10:45:00.399Z,1014.35
2016-08-10T10:49:58.048Z,1014.44
2016-08-10T10:59:53.187Z,1014.78
2016-08-10T11:04:51.048Z,1014.83
2016-08-10T11:09:48.750Z,1014.84
2016-08-10T11:14:46.471Z,1014.71
2016-08-10T11:19:44.050Z,1014.74
2016-08-10T11:24:41.644Z,1014.88
2016-08-10T11:29:39.349Z,1014.90
2016-08-10T11:34:36.916Z,1014.80
2016-08-10T11:39:34.477Z,1014.75
2016-08-10T11:44:31.989Z,1014.78
2016-08-10T11:49:29.689Z,1014.65
2016-08-10T11:54:27.298Z,1014.72
2016-08-10T11:59:24.866Z,1014.66
2016-08-10T12:04:22.489Z,1014.67
2016-08-10T12:09:21.087Z,1014.75
2016-08-10T12:14:18.415Z,1014.74
2016-08-10T12:19:15.925Z,1014.76
2016-08-10T12:24:13.577Z,1014.75
2016-08-10T12:29:11.167Z,1014.73
2016-08-10T12:34:08.903Z,1014.78
2016-08-10T12:39:07.490Z,1014.72
2016-08-10T12:44:05.073Z,1014.89
2016-08-10T12:49:02.607Z,1014.91
2016-08-10T12:54:00.203Z,1015.00
2016-08-10T12:58:57.764Z,1015.02
2016-08-10T13:03:55.389Z,1014.97
2016-08-10T13:08:52.936Z,1014.91
2016-08-10T13:13:50.590Z,1014.83
2016-08-10T13:18:48.087Z,1014.84
2016-08-10T13:23:45.676Z,1014.81
2016-08-10T13:28:43.305Z,1014.78
2016-08-10T13:33:40.956Z,1014.78
2016-08-10T13:38:38.723Z,1014.80
2016-08-10T13:43:36.241Z,1014.84
2016-08-10T13:48:34.736Z,1014.85
2016-08-10T13:53:32.320Z,1014.85
2016-08-10T13:58:30.094Z,1014.83
2016-08-10T14:03:27.983Z,1014.91
2016-08-10T14:08:25.498Z,1014.83
2016-08-10T14:13:23.135Z,1014.79
2016-08-10T14:18:20.893Z,1014.72
2016-08-10T14:23:18.756Z,1014.79
2016-08-10T14:28:16.468Z,1014.78
2016-08-10T14:33:14.150Z,1014.90
2016-08-10T14:38:12.090Z,1015.45
2016-08-10T14:43:09.807Z,1015.45
2016-08-10T14:48:07.498Z,1015.49
2016-08-10T14:53:05.207Z,1015.34
2016-08-10T14:58:02.851Z,1015.30
2016-08-10T15:03:00.585Z,1015.14
2016-08-10T15:07:58.260Z,1015.16
2016-08-10T15:12:56.223Z,1015.17
2016-08-10T15:17:53.928Z,1015.19
2016-08-10T15:22:52.053Z,1015.15
2016-08-10T15:27:49.788Z,1015.19
2016-08-10T15:32:47.586Z,1015.26
2016-08-10T15:37:45.449Z,1015.23
2016-08-10T15:42:43.153Z,1015.26
2016-08-10T15:47:40.826Z,1015.16
2016-08-10T15:52:38.793Z,1015.07
2016-08-10T15:57:36.872Z,1015.19
2016-08-10T16:02:34.787Z,1015.12
2016-08-10T16:07:32.586Z,1015.16
2016-08-10T16:12:30.382Z,1015.22
2016-08-10T16:17:28.230Z,1015.48
2016-08-10T16:22:26.076Z,1015.65
2016-08-10T16:27:23.942Z,1015.60
2016-08-10T16:32:21.910Z,1015.55
2016-08-10T16:37:19.730Z,1015.56
2016-08-10T16:42:17.667Z,1015.47
2016-08-10T16:47:15.447Z,1015.47
2016-08-10T16:52:13.238Z,1015.39
2016-08-10T16:57:11.008Z,1015.39
2016-08-10T17:02:09.717Z,1015.26
2016-08-10T17:07:07.345Z,1015.21
2016-08-10T17:12:04.909Z,1015.20
2016-08-10T17:17:02.680Z,1015.21
2016-08-10T17:22:00.689Z,1015.23
2016-08-10T17:26:58.844Z,1015.34
2016-08-10T17:31:57.718Z,1015.42
2016-08-10T17:36:55.496Z,1015.44
2016-08-10T17:41:53.573Z,1015.48
2016-08-10T17:46:51.334Z,1015.49
2016-08-10T17:51:49.257Z,1015.51
2016-08-10T17:56:47.009Z,1015.55
2016-08-10T18:01:44.814Z,1015.71
2016-08-10T18:06:42.851Z,1015.66
2016-08-10T18:11:40.805Z,1015.67
2016-08-10T18:16:38.716Z,1015.72
2016-08-10T18:21:36.879Z,1015.70
2016-08-10T18:31:32.260Z,1015.80
2016-08-10T18:36:30.108Z,1015.87
2016-08-10T18:41:27.972Z,1015.98
2016-08-10T18:46:26.689Z,1015.87
2016-08-10T18:51:24.435Z,1015.98
2016-08-10T18:56:22.025Z,1016.04
2016-08-10T19:01:19.794Z,1016.08
2016-08-10T19:06:18.019Z,1016.01
2016-08-10T19:11:15.872Z,1016.06
2016-08-10T19:16:13.792Z,1016.14
2016-08-10T19:21:12.547Z,1016.11
2016-08-10T19:26:10.213Z,1016.18
2016-08-10T19:31:07.981Z,1016.21
2016-08-10T19:36:06.782Z,1016.16
2016-08-10T19:41:04.520Z,1016.16
2016-08-10T19:46:02.319Z,1016.23
2016-08-10T19:51:00.243Z,1016.22
2016-08-10T19:55:58.038Z,1016.23
2016-08-10T20:00:56.025Z,1016.26
2016-08-10T20:05:54.125Z,1016.25
2016-08-10T20:10:51.879Z,1016.38
2016-08-10T20:15:50.016Z,1016.40
2016-08-10T20:20:48.125Z,1016.41
2016-08-10T20:25:45.909Z,1016.40
2016-08-10T20:30:43.798Z,1016.45
2016-08-10T20:35:41.788Z,1016.44
2016-08-10T20:40:39.730Z,1016.54
2016-08-10T20:45:37.615Z,1016.49
2016-08-10T20:50:35.453Z,1016.53
2016-08-10T20:55:33.273Z,1016.46
2016-08-10T21:00:31.069Z,1016.50
2016-08-10T21:05:28.615Z,1016.57
2016-08-10T21:10:26.234Z,1016.43
2016-08-10T21:15:23.856Z,1016.60
2016-08-10T21:20:21.719Z,1016.56
2016-08-10T21:25:19.361Z,1016.62
2016-08-10T21:30:17.056Z,1016.67
2016-08-10T21:35:14.719Z,1016.61
2016-08-10T21:40:12.361Z,1016.68
2016-08-10T21:45:10.037Z,1016.72
2016-08-10T21:50:08.683Z,1016.67
2016-08-10T21:55:06.206Z,1016.76
2016-08-10T22:00:03.813Z,1016.73
2016-08-10T22:05:01.407Z,1016.72
2016-08-10T22:09:59.099Z,1016.72
2016-08-10T22:14:56.892Z,1016.71
2016-08-10T22:19:54.587Z,1016.78
2016-08-10T22:24:52.276Z,1016.77
2016-08-10T22:29:49.905Z,1016.75
2016-08-10T22:34:47.578Z,1016.72
2016-08-10T22:39:45.040Z,1016.70
2016-08-10T22:44:42.621Z,1016.66
2016-08-10T22:49:40.550Z,1016.77
2016-08-10T22:54:38.087Z,1016.68
2016-08-10T22:59:35.842Z,1016.72
2016-08-10T23:04:33.370Z,1016.76
2016-08-10T23:09:31.071Z,1016.81
2016-08-10T23:14:28.935Z,1016.74
2016-08-10T23:19:26.428Z,1016.72
2016-08-10T23:24:24.186Z,1016.72
2016-08-10T23:29:21.782Z,1016.65
2016-08-10T23:34:19.411Z,1016.71
2016-08-10T23:39:16.976Z,1016.70
2016-08-10T23:44:14.635Z,1016.78
2016-08-10T23:49:12.321Z,1016.75
2016-08-10T23:54:09.837Z,1016.62
2016-08-10T23:59:07.455Z,1016.51
